Perdido Beach, Alabama
Current Conditions -  °F | °C
As of 8:35 PM on Saturday 22 Nov 2014 (Local Time) from KJKA Reporting Station
Light Rain Light Rain  
Wind Chill: 60°   Ceiling: 500
Heat Index: 60°   Visibility: 5mi
Dew Point: 59°   Wind: 9mph
Humidity: 97%   Direction: 70°ENE
Pressure: 30.06"   Gusts: NA
Location:  30.4162°N, 87.5594°W
Report Text: KJKA 230235Z AUTO 07008KT 5SM -RA OVC005 15/15 A3006 RMK AO2 T01530148
Loading
Personal Weather Stations






























Interactive Weather Map New forecast layout! Learn more

10-Day Weather Forecast

Advertisements
Track Severe Weather on mobile